Buckhorn Atmospheric Data: 07/12/2019 Summary  Detailed Graphs  Station List

  Temperature     Wind Precipitation Visibility
Timestamp Air Wet
Bulb
Dew-
point
24-hr
Max
24-hr
Min
Relative
Humidity
Atmospheric
Pressure
Avg
Speed
Avg
Dir
Spot
Speed
Spot
Dir
Max
Speed
Max
Dir
  Rate Situation Start End 1 hr 3 hr 6 hr 12 hr 24 hr   Situation
Date Time °F °F °F °F °F % in Hg mph ° mph ° mph ° Y/N in/hr text Date Time Date Time in in in in in mi text
07/12/2019 12:09 AM 65.84 60.08 56.48 88.70 53.96 71.0 Not Reported 0.22 SE 0.22 SE 3.36 SE No 0.000 No Precipitation 07/03/2019 09:42 AM 07/03/2019 09:52 AM 0.000 0.000 0.000 0.000 0.000 Not Reported Not Reported
07/12/2019 12:24 AM 65.48 59.90 56.30 88.70 53.96 72.0 Not Reported 0.89 SE 2.01 SE 1.79 SE No 0.000 No Precipitation 07/03/2019 09:42 AM 07/03/2019 09:52 AM 0.000 0.000 0.000 0.000 0.000 Not Reported Not Reported
07/12/2019 12:39 AM 64.76 59.54 56.12 88.70 53.96 73.0 Not Reported 0.67 S 1.79 E 2.91 SE No 0.000 No Precipitation 07/03/2019 09:42 AM 07/03/2019 09:52 AM 0.000 0.000 0.000 0.000 0.000 Not Reported Not Reported
07/12/2019 12:54 AM 64.04 59.18 55.94 88.70 53.96 74.0 Not Reported 0.22 SE 0.00 N 2.01 SE No 0.000 No Precipitation 07/03/2019 09:42 AM 07/03/2019 09:52 AM 0.000 0.000 0.000 0.000 0.000 Not Reported Not Reported
07/12/2019 01:09 AM 63.50 58.82 55.76 88.70 53.96 75.0 Not Reported 0.89 SE 0.00 S 1.34 SE No 0.000 No Precipitation 07/03/2019 09:42 AM 07/03/2019 09:52 AM 0.000 0.000 0.000 0.000 0.000 Not Reported Not Reported
07/12/2019 01:24 AM 62.78 58.46 55.58 88.70 53.96 77.0 Not Reported 0.00 E 0.00 E 0.67 E No 0.000 No Precipitation 07/03/2019 09:42 AM 07/03/2019 09:52 AM 0.000 0.000 0.000 0.000 0.000 Not Reported Not Reported
07/12/2019 01:39 AM 62.42 58.28 55.58 88.70 53.96 78.0 Not Reported 0.00 N 0.00 S 1.34 SE No 0.000 No Precipitation 07/03/2019 09:42 AM 07/03/2019 09:52 AM 0.000 0.000 0.000 0.000 0.000 Not Reported Not Reported
07/12/2019 01:54 AM 61.70 57.74 55.22 88.70 53.96 79.0 Not Reported 0.22 SE 0.67 SE 0.00 S No 0.000 No Precipitation 07/03/2019 09:42 AM 07/03/2019 09:52 AM 0.000 0.000 0.000 0.000 0.000 Not Reported Not Reported
07/12/2019 02:09 AM 61.16 57.56 55.04 88.70 53.96 79.0 Not Reported 0.00 N 0.00 S 0.67 SE No 0.000 No Precipitation 07/03/2019 09:42 AM 07/03/2019 09:52 AM 0.000 0.000 0.000 0.000 0.000 Not Reported Not Reported
07/12/2019 02:24 AM 60.80 57.20 54.86 88.70 53.96 80.0 Not Reported 0.00 N 0.00 E 0.45 W No 0.000 No Precipitation 07/03/2019 09:42 AM 07/03/2019 09:52 AM 0.000 0.000 0.000 0.000 0.000 Not Reported Not Reported
07/12/2019 02:39 AM 60.08 56.84 54.50 88.70 53.96 81.0 Not Reported 0.00 N 0.00 SE 0.89 SE No 0.000 No Precipitation 07/03/2019 09:42 AM 07/03/2019 09:52 AM 0.000 0.000 0.000 0.000 0.000 Not Reported Not Reported
07/12/2019 02:54 AM 59.72 56.66 54.50 88.70 53.96 82.0 Not Reported 0.00 W 0.00 W 0.67 NE No 0.000 No Precipitation 07/03/2019 09:42 AM 07/03/2019 09:52 AM 0.000 0.000 0.000 0.000 0.000 Not Reported Not Reported
07/12/2019 03:09 AM 59.18 56.12 53.96 88.70 53.96 82.0 Not Reported 0.00 N 0.00 SW 0.00 NE No 0.000 No Precipitation 07/03/2019 09:42 AM 07/03/2019 09:52 AM 0.000 0.000 0.000 0.000 0.000 Not Reported Not Reported
07/12/2019 03:24 AM 58.82 55.94 53.96 88.70 53.96 83.0 Not Reported 0.00 NE 0.00 NE 0.22 S No 0.000 No Precipitation 07/03/2019 09:42 AM 07/03/2019 09:52 AM 0.000 0.000 0.000 0.000 0.000 Not Reported Not Reported
07/12/2019 03:39 AM 58.64 55.76 53.60 88.70 53.96 83.0 Not Reported 0.00 SW 0.00 SW 0.45 NE No 0.000 No Precipitation 07/03/2019 09:42 AM 07/03/2019 09:52 AM 0.000 0.000 0.000 0.000 0.000 Not Reported Not Reported
07/12/2019 03:54 AM 58.10 55.22 53.42 88.70 53.96 84.0 Not Reported 0.00 NW 0.00 N 0.00 SW No 0.000 No Precipitation 07/03/2019 09:42 AM 07/03/2019 09:52 AM 0.000 0.000 0.000 0.000 0.000 Not Reported Not Reported
07/12/2019 04:09 AM 57.74 55.04 53.24 88.70 53.96 84.0 Not Reported 0.00 SE 0.00 SE 0.00 N No 0.000 No Precipitation 07/03/2019 09:42 AM 07/03/2019 09:52 AM 0.000 0.000 0.000 0.000 0.000 Not Reported Not Reported
07/12/2019 04:24 AM 57.38 54.86 52.88 88.70 53.96 85.0 Not Reported 0.00 N 0.00 S 0.00 SE No 0.000 No Precipitation 07/03/2019 09:42 AM 07/03/2019 09:52 AM 0.000 0.000 0.000 0.000 0.000 Not Reported Not Reported
07/12/2019 04:39 AM 57.02 54.50 52.70 88.70 53.96 85.0 Not Reported 0.00 SW 0.00 S 0.00 E No 0.000 No Precipitation 07/03/2019 09:42 AM 07/03/2019 09:52 AM 0.000 0.000 0.000 0.000 0.000 Not Reported Not Reported
07/12/2019 04:54 AM 56.66 54.32 52.52 88.70 53.96 86.0 Not Reported 0.00 N 0.00 S 0.22 S No 0.000 No Precipitation 07/03/2019 09:42 AM 07/03/2019 09:52 AM 0.000 0.000 0.000 0.000 0.000 Not Reported Not Reported
07/12/2019 05:09 AM 56.30 53.96 52.34 88.70 53.96 86.0 Not Reported 1.12 SE 1.12 SE 0.00 NE No 0.000 No Precipitation 07/03/2019 09:42 AM 07/03/2019 09:52 AM 0.000 0.000 0.000 0.000 0.000 Not Reported Not Reported
07/12/2019 05:24 AM 56.12 53.78 52.16 88.70 53.96 86.0 Not Reported 0.00 N 0.00 SW 1.57 S No 0.000 No Precipitation 07/03/2019 09:42 AM 07/03/2019 09:52 AM 0.000 0.000 0.000 0.000 0.000 Not Reported Not Reported
07/12/2019 05:39 AM 55.58 53.42 51.80 88.70 53.96 87.0 Not Reported 0.22 SW 0.00 W 0.22 SW No 0.000 No Precipitation 07/03/2019 09:42 AM 07/03/2019 09:52 AM 0.000 0.000 0.000 0.000 0.000 Not Reported Not Reported
07/12/2019 05:54 AM 55.22 53.24 51.80 88.70 53.96 87.0 Not Reported 0.00 NE 0.00 NE 0.89 NE No 0.000 No Precipitation 07/03/2019 09:42 AM 07/03/2019 09:52 AM 0.000 0.000 0.000 0.000 0.000 Not Reported Not Reported
07/12/2019 06:09 AM 55.04 53.06 51.62 88.70 53.96 88.0 Not Reported 0.00 N 0.00 S 0.00 NE No 0.000 No Precipitation 07/03/2019 09:42 AM 07/03/2019 09:52 AM 0.000 0.000 0.000 0.000 0.000 Not Reported Not Reported
07/12/2019 06:24 AM 54.68 52.88 51.44 88.70 53.96 88.0 Not Reported 0.00 N 0.00 SE 0.22 SE No 0.000 No Precipitation 07/03/2019 09:42 AM 07/03/2019 09:52 AM 0.000 0.000 0.000 0.000 0.000 Not Reported Not Reported
07/12/2019 06:39 AM 54.50 52.70 51.26 88.70 53.96 88.0 Not Reported 0.00 E 0.00 E 0.00 SE No 0.000 No Precipitation 07/03/2019 09:42 AM 07/03/2019 09:52 AM 0.000 0.000 0.000 0.000 0.000 Not Reported Not Reported
07/12/2019 06:54 AM 54.32 52.52 51.08 88.70 53.96 88.0 Not Reported 0.00 N 0.00 W 0.89 NE No 0.000 No Precipitation 07/03/2019 09:42 AM 07/03/2019 09:52 AM 0.000 0.000 0.000 0.000 0.000 Not Reported Not Reported
07/12/2019 07:09 AM 53.96 52.16 50.90 88.70 53.96 89.0 Not Reported 0.00 N 0.67 N 0.45 N No 0.000 No Precipitation 07/03/2019 09:42 AM 07/03/2019 09:52 AM 0.000 0.000 0.000 0.000 0.000 Not Reported Not Reported
07/12/2019 07:24 AM 53.96 52.16 50.90 88.70 53.96 89.0 Not Reported 0.00 SE 0.00 SE 0.45 N No 0.000 No Precipitation 07/03/2019 09:42 AM 07/03/2019 09:52 AM 0.000 0.000 0.000 0.000 0.000 Not Reported Not Reported
07/12/2019 07:39 AM 54.32 52.52 51.08 88.70 53.96 88.0 Not Reported 0.00 N 0.00 SW 1.57 SE No 0.000 No Precipitation 07/03/2019 09:42 AM 07/03/2019 09:52 AM 0.000 0.000 0.000 0.000 0.000 Not Reported Not Reported
07/12/2019 07:54 AM 54.14 52.34 50.90 88.70 53.96 89.0 Not Reported 0.22 NE 0.22 NE 0.22 SE No 0.000 No Precipitation 07/03/2019 09:42 AM 07/03/2019 09:52 AM 0.000 0.000 0.000 0.000 0.000 Not Reported Not Reported
07/12/2019 08:09 AM 54.32 52.52 51.26 88.70 53.96 89.0 Not Reported 0.00 NE 0.67 NE 0.45 NE No 0.000 No Precipitation 07/03/2019 09:42 AM 07/03/2019 09:52 AM 0.000 0.000 0.000 0.000 0.000 Not Reported Not Reported
07/12/2019 08:24 AM 55.04 53.06 51.80 88.70 53.96 88.0 Not Reported 0.00 N 0.00 NE 0.89 NE No 0.000 No Precipitation 07/03/2019 09:42 AM 07/03/2019 09:52 AM 0.000 0.000 0.000 0.000 0.000 Not Reported Not Reported
07/12/2019 08:39 AM 56.12 54.14 52.70 88.70 53.96 87.0 Not Reported 0.00 NE 0.00 NE 0.22 NE No 0.000 No Precipitation 07/03/2019 09:42 AM 07/03/2019 09:52 AM 0.000 0.000 0.000 0.000 0.000 Not Reported Not Reported
07/12/2019 08:54 AM 57.20 54.86 53.06 88.70 53.96 86.0 Not Reported 0.00 NE 0.22 NE 0.45 NE No 0.000 No Precipitation 07/03/2019 09:42 AM 07/03/2019 09:52 AM 0.000 0.000 0.000 0.000 0.000 Not Reported Not Reported
07/12/2019 09:09 AM 60.08 56.66 54.14 88.70 53.96 80.0 Not Reported 2.01 NW 2.46 W 0.22 NE No 0.000 No Precipitation 07/03/2019 09:42 AM 07/03/2019 09:52 AM 0.000 0.000 0.000 0.000 0.000 Not Reported Not Reported
07/12/2019 09:24 AM 64.58 57.38 52.16 88.70 53.96 64.0 Not Reported 4.47 W 4.70 W 6.49 NW No 0.000 No Precipitation 07/03/2019 09:42 AM 07/03/2019 09:52 AM 0.000 0.000 0.000 0.000 0.000 Not Reported Not Reported
07/12/2019 09:39 AM 65.12 57.74 52.52 88.70 53.96 63.0 Not Reported 2.91 NW 1.34 W 4.70 W No 0.000 No Precipitation 07/03/2019 09:42 AM 07/03/2019 09:52 AM 0.000 0.000 0.000 0.000 0.000 Not Reported Not Reported
07/12/2019 09:54 AM 66.38 58.10 52.52 88.70 53.96 61.0 Not Reported 3.36 NW 3.58 W 5.59 W No 0.000 No Precipitation 07/03/2019 09:42 AM 07/03/2019 09:52 AM 0.000 0.000 0.000 0.000 0.000 Not Reported Not Reported
07/12/2019 10:09 AM 67.46 58.64 52.52 88.70 53.96 58.0 Not Reported 5.14 W 4.25 W 5.82 NW No 0.000 No Precipitation 07/03/2019 09:42 AM 07/03/2019 09:52 AM 0.000 0.000 0.000 0.000 0.000 Not Reported Not Reported
07/12/2019 10:24 AM 68.36 59.00 52.70 88.70 53.96 57.0 Not Reported 2.46 NW 2.68 N 6.49 W No 0.000 No Precipitation 07/03/2019 09:42 AM 07/03/2019 09:52 AM 0.000 0.000 0.000 0.000 0.000 Not Reported Not Reported
07/12/2019 10:39 AM 69.80 59.54 52.70 88.70 53.96 54.0 Not Reported 1.79 NW 3.80 W 6.49 NW No 0.000 No Precipitation 07/03/2019 09:42 AM 07/03/2019 09:52 AM 0.000 0.000 0.000 0.000 0.000 Not Reported Not Reported
07/12/2019 10:54 AM 70.16 59.90 52.88 88.70 53.96 54.0 Not Reported 3.13 W 1.79 W 6.04 W No 0.000 No Precipitation 07/03/2019 09:42 AM 07/03/2019 09:52 AM 0.000 0.000 0.000 0.000 0.000 Not Reported Not Reported
07/12/2019 11:09 AM 72.14 60.98 53.60 88.70 53.96 52.0 Not Reported 3.80 W 1.34 N 5.82 W No 0.000 No Precipitation 07/03/2019 09:42 AM 07/03/2019 09:52 AM 0.000 0.000 0.000 0.000 0.000 Not Reported Not Reported
07/12/2019 11:24 AM 73.76 61.70 53.96 88.70 53.96 49.0 Not Reported 4.47 NW 6.04 NW 6.93 W No 0.000 No Precipitation 07/03/2019 09:42 AM 07/03/2019 09:52 AM 0.000 0.000 0.000 0.000 0.000 Not Reported Not Reported
07/12/2019 11:39 AM 74.84 62.24 54.32 88.70 53.96 49.0 Not Reported 3.36 W 4.47 W 6.93 W No 0.000 No Precipitation 07/03/2019 09:42 AM 07/03/2019 09:52 AM 0.000 0.000 0.000 0.000 0.000 Not Reported Not Reported
07/12/2019 11:54 AM 76.64 62.96 54.50 88.70 53.96 46.0 Not Reported 3.13 W 4.47 W 6.26 W No 0.000 No Precipitation 07/03/2019 09:42 AM 07/03/2019 09:52 AM 0.000 0.000 0.000 0.000 0.000 Not Reported Not Reported
07/12/2019 12:09 PM 77.18 62.96 54.14 88.70 53.96 45.0 Not Reported 4.03 W 5.14 W 5.59 NW No 0.000 No Precipitation 07/03/2019 09:42 AM 07/03/2019 09:52 AM 0.000 0.000 0.000 0.000 0.000 Not Reported Not Reported
07/12/2019 12:24 PM 78.08 63.50 54.50 88.70 53.96 44.0 Not Reported 5.37 NW 4.25 NW 6.04 W No 0.000 No Precipitation 07/03/2019 09:42 AM 07/03/2019 09:52 AM 0.000 0.000 0.000 0.000 0.000 Not Reported Not Reported
07/12/2019 12:39 PM 79.70 64.40 55.22 88.70 53.96 42.0 Not Reported 2.91 NW 4.92 W 7.38 W No 0.000 No Precipitation 07/03/2019 09:42 AM 07/03/2019 09:52 AM 0.000 0.000 0.000 0.000 0.000 Not Reported Not Reported
07/12/2019 12:54 PM 81.50 64.94 54.86 88.70 53.96 39.0 Not Reported 2.24 SW 4.70 W 7.61 NW No 0.000 No Precipitation 07/03/2019 09:42 AM 07/03/2019 09:52 AM 0.000 0.000 0.000 0.000 0.000 Not Reported Not Reported
07/12/2019 01:09 PM 81.68 65.30 55.76 88.70 53.96 41.0 Not Reported 4.47 W 4.92 W 5.37 W No 0.000 No Precipitation 07/03/2019 09:42 AM 07/03/2019 09:52 AM 0.000 0.000 0.000 0.000 0.000 Not Reported Not Reported
07/12/2019 01:24 PM 82.76 65.30 54.86 88.70 53.96 38.0 Not Reported 4.70 W 2.68 SW 7.38 W No 0.000 No Precipitation 07/03/2019 09:42 AM 07/03/2019 09:52 AM 0.000 0.000 0.000 0.000 0.000 Not Reported Not Reported
07/12/2019 01:39 PM 83.66 65.12 53.78 88.70 53.96 35.0 Not Reported 3.13 NW 5.14 W 6.93 NW No 0.000 No Precipitation 07/03/2019 09:42 AM 07/03/2019 09:52 AM 0.000 0.000 0.000 0.000 0.000 Not Reported Not Reported
07/12/2019 01:54 PM 84.56 65.30 53.60 88.70 53.96 34.0 Not Reported 2.68 W 8.72 W 9.84 W No 0.000 No Precipitation 07/03/2019 09:42 AM 07/03/2019 09:52 AM 0.000 0.000 0.000 0.000 0.000 Not Reported Not Reported
07/12/2019 02:09 PM 86.00 66.02 54.32 88.70 53.96 33.0 Not Reported 2.24 NE 0.22 SW 9.84 W No 0.000 No Precipitation 07/03/2019 09:42 AM 07/03/2019 09:52 AM 0.000 0.000 0.000 0.000 0.000 Not Reported Not Reported
07/12/2019 02:24 PM 85.10 65.30 53.42 88.70 53.96 33.0 Not Reported 8.05 W 6.93 W 4.70 W No 0.000 No Precipitation 07/03/2019 09:42 AM 07/03/2019 09:52 AM 0.000 0.000 0.000 0.000 0.000 Not Reported Not Reported
07/12/2019 02:39 PM 86.36 66.02 53.60 88.70 53.96 32.0 Not Reported 5.59 W 7.16 NW 9.17 W No 0.000 No Precipitation 07/03/2019 09:42 AM 07/03/2019 09:52 AM 0.000 0.000 0.000 0.000 0.000 Not Reported Not Reported
07/12/2019 02:54 PM 86.36 66.02 53.78 88.70 53.96 32.0 Not Reported 6.49 W 3.58 W 8.28 W No 0.000 No Precipitation 07/03/2019 09:42 AM 07/03/2019 09:52 AM 0.000 0.000 0.000 0.000 0.000 Not Reported Not Reported
07/12/2019 03:09 PM 86.54 65.84 53.06 88.70 53.96 31.0 Not Reported 6.93 W 5.82 W 9.40 W No 0.000 No Precipitation 07/03/2019 09:42 AM 07/03/2019 09:52 AM 0.000 0.000 0.000 0.000 0.000 Not Reported Not Reported
07/12/2019 03:24 PM 88.88 66.74 53.24 89.24 53.96 29.0 Not Reported 2.68 NW 6.04 W 5.82 SW No 0.000 No Precipitation 07/03/2019 09:42 AM 07/03/2019 09:52 AM 0.000 0.000 0.000 0.000 0.000 Not Reported Not Reported
07/12/2019 03:39 PM 88.16 66.20 53.06 89.24 53.96 30.0 Not Reported 6.04 W 8.72 W 8.05 NW No 0.000 No Precipitation 07/03/2019 09:42 AM 07/03/2019 09:52 AM 0.000 0.000 0.000 0.000 0.000 Not Reported Not Reported
07/12/2019 03:54 PM 89.96 66.38 51.98 89.96 53.96 27.0 Not Reported 0.67 S 0.89 S 10.51 NW No 0.000 No Precipitation 07/03/2019 09:42 AM 07/03/2019 09:52 AM 0.000 0.000 0.000 0.000 0.000 Not Reported Not Reported
07/12/2019 04:09 PM 89.06 65.12 49.64 91.58 53.96 25.0 Not Reported 3.80 W 0.89 W 5.82 W No 0.000 No Precipitation 07/03/2019 09:42 AM 07/03/2019 09:52 AM 0.000 0.000 0.000 0.000 0.000 Not Reported Not Reported
07/12/2019 04:24 PM 90.14 65.48 49.64 91.58 53.96 25.0 Not Reported 2.91 W 2.01 W 7.83 W No 0.000 No Precipitation 07/03/2019 09:42 AM 07/03/2019 09:52 AM 0.000 0.000 0.000 0.000 0.000 Not Reported Not Reported
07/12/2019 04:39 PM 89.42 65.30 50.00 91.58 53.96 25.0 Not Reported 6.49 NW 6.93 W 7.16 W No 0.000 No Precipitation 07/03/2019 09:42 AM 07/03/2019 09:52 AM 0.000 0.000 0.000 0.000 0.000 Not Reported Not Reported
07/12/2019 04:54 PM 90.14 65.84 50.18 91.58 53.96 25.0 Not Reported 7.16 W 4.03 NW 6.26 W No 0.000 No Precipitation 07/03/2019 09:42 AM 07/03/2019 09:52 AM 0.000 0.000 0.000 0.000 0.000 Not Reported Not Reported
07/12/2019 05:09 PM 89.42 65.30 49.82 91.58 53.96 25.0 Not Reported 4.70 NW 5.82 W 9.84 W No 0.000 No Precipitation 07/03/2019 09:42 AM 07/03/2019 09:52 AM 0.000 0.000 0.000 0.000 0.000 Not Reported Not Reported
07/12/2019 05:24 PM 88.52 65.30 50.72 91.58 53.96 27.0 Not Reported 3.80 W 3.36 W 6.49 NW No 0.000 No Precipitation 07/03/2019 09:42 AM 07/03/2019 09:52 AM 0.000 0.000 0.000 0.000 0.000 Not Reported Not Reported
07/12/2019 05:39 PM 88.70 66.20 52.34 91.58 53.96 28.0 Not Reported 2.46 W 1.57 SW 4.47 W No 0.000 No Precipitation 07/03/2019 09:42 AM 07/03/2019 09:52 AM 0.000 0.000 0.000 0.000 0.000 Not Reported Not Reported
07/12/2019 05:54 PM 83.84 64.76 52.88 91.58 53.96 34.0 Not Reported 2.24 S 3.58 SW 2.24 W No 0.000 No Precipitation 07/03/2019 09:42 AM 07/03/2019 09:52 AM 0.000 0.000 0.000 0.000 0.000 Not Reported Not Reported
07/12/2019 06:09 PM 86.90 66.20 53.78 91.58 53.96 32.0 Not Reported 3.58 E 6.26 NW 4.47 SW No 0.000 No Precipitation 07/03/2019 09:42 AM 07/03/2019 09:52 AM 0.000 0.000 0.000 0.000 0.000 Not Reported Not Reported
07/12/2019 06:24 PM 90.32 65.30 49.10 91.58 53.96 24.0 Not Reported 3.80 W 7.61 W 7.16 W No 0.000 No Precipitation 07/03/2019 09:42 AM 07/03/2019 09:52 AM 0.000 0.000 0.000 0.000 0.000 Not Reported Not Reported
07/12/2019 06:39 PM 89.60 65.30 49.46 91.58 53.96 25.0 Not Reported 4.70 W 3.80 W 9.17 NW No 0.000 No Precipitation 07/03/2019 09:42 AM 07/03/2019 09:52 AM 0.000 0.000 0.000 0.000 0.000 Not Reported Not Reported
07/12/2019 06:54 PM 89.96 65.12 48.74 91.58 53.96 24.0 Not Reported 2.01 N 2.01 S 7.16 W No 0.000 No Precipitation 07/03/2019 09:42 AM 07/03/2019 09:52 AM 0.000 0.000 0.000 0.000 0.000 Not Reported Not Reported
07/12/2019 07:09 PM 89.06 64.76 48.92 91.58 53.96 25.0 Not Reported 4.47 W 4.70 NW 5.82 W No 0.000 No Precipitation 07/03/2019 09:42 AM 07/03/2019 09:52 AM 0.000 0.000 0.000 0.000 0.000 Not Reported Not Reported
07/12/2019 07:24 PM 87.80 64.40 48.56 91.58 53.96 25.0 Not Reported 7.83 W 8.95 NW 6.71 W No 0.000 No Precipitation 07/03/2019 09:42 AM 07/03/2019 09:52 AM 0.000 0.000 0.000 0.000 0.000 Not Reported Not Reported
07/12/2019 07:39 PM 89.42 66.02 51.62 91.58 53.96 27.0 Not Reported 2.46 W 3.36 W 8.95 NW No 0.000 No Precipitation 07/03/2019 09:42 AM 07/03/2019 09:52 AM 0.000 0.000 0.000 0.000 0.000 Not Reported Not Reported
07/12/2019 07:54 PM 87.44 65.30 51.26 91.58 53.96 28.0 Not Reported 4.70 NW 4.70 W 8.95 W No 0.000 No Precipitation 07/03/2019 09:42 AM 07/03/2019 09:52 AM 0.000 0.000 0.000 0.000 0.000 Not Reported Not Reported
07/12/2019 08:09 PM 86.54 64.94 51.08 91.58 53.96 29.0 Not Reported 4.03 W 4.47 W 7.16 NW No 0.000 No Precipitation 07/03/2019 09:42 AM 07/03/2019 09:52 AM 0.000 0.000 0.000 0.000 0.000 Not Reported Not Reported
07/12/2019 08:24 PM 85.46 64.58 51.44 91.58 53.96 30.0 Not Reported 3.36 W 4.70 SW 8.28 NW No 0.000 No Precipitation 07/03/2019 09:42 AM 07/03/2019 09:52 AM 0.000 0.000 0.000 0.000 0.000 Not Reported Not Reported
07/12/2019 08:39 PM 84.56 64.40 51.62 91.58 53.96 32.0 Not Reported 2.91 W 4.03 NW 8.50 W No 0.000 No Precipitation 07/03/2019 09:42 AM 07/03/2019 09:52 AM 0.000 0.000 0.000 0.000 0.000 Not Reported Not Reported
07/12/2019 08:54 PM 83.30 64.04 51.80 91.58 53.96 33.0 Not Reported 4.25 W 3.58 SW 6.26 SW No 0.000 No Precipitation 07/03/2019 09:42 AM 07/03/2019 09:52 AM 0.000 0.000 0.000 0.000 0.000 Not Reported Not Reported
07/12/2019 09:09 PM 80.24 63.86 53.78 91.58 53.96 39.0 Not Reported 1.34 W 1.79 NW 6.26 W No 0.000 No Precipitation 07/03/2019 09:42 AM 07/03/2019 09:52 AM 0.000 0.000 0.000 0.000 0.000 Not Reported Not Reported
07/12/2019 09:24 PM 77.90 62.96 53.60 91.58 53.96 42.0 Not Reported 1.34 NW 1.12 NW 2.24 NW No 0.000 No Precipitation 07/03/2019 09:42 AM 07/03/2019 09:52 AM 0.000 0.000 0.000 0.000 0.000 Not Reported Not Reported
07/12/2019 09:39 PM 76.28 62.96 54.68 91.58 53.96 47.0 Not Reported 2.91 SE 2.91 SE 1.79 NW No 0.000 No Precipitation 07/03/2019 09:42 AM 07/03/2019 09:52 AM 0.000 0.000 0.000 0.000 0.000 Not Reported Not Reported
07/12/2019 09:54 PM 74.12 62.42 55.22 91.58 53.96 51.0 Not Reported 1.12 SE 1.12 SE 2.68 SE No 0.000 No Precipitation 07/03/2019 09:42 AM 07/03/2019 09:52 AM 0.000 0.000 0.000 0.000 0.000 Not Reported Not Reported
07/12/2019 10:09 PM 72.86 61.70 54.50 91.58 53.96 52.0 Not Reported 2.01 SE 2.91 SE 2.01 E No 0.000 No Precipitation 07/03/2019 09:42 AM 07/03/2019 09:52 AM 0.000 0.000 0.000 0.000 0.000 Not Reported Not Reported
07/12/2019 10:24 PM 71.24 60.98 54.32 91.58 53.96 55.0 Not Reported 0.67 S 0.00 S 2.24 SE No 0.000 No Precipitation 07/03/2019 09:42 AM 07/03/2019 09:52 AM 0.000 0.000 0.000 0.000 0.000 Not Reported Not Reported
07/12/2019 10:39 PM 70.34 60.62 54.14 91.58 53.96 56.0 Not Reported 1.12 SE 0.89 SE 2.01 SE No 0.000 No Precipitation 07/03/2019 09:42 AM 07/03/2019 09:52 AM 0.000 0.000 0.000 0.000 0.000 Not Reported Not Reported
07/12/2019 10:54 PM 69.62 60.26 54.14 91.58 53.96 57.0 Not Reported 0.22 SE 0.89 E 2.01 SE No 0.000 No Precipitation 07/03/2019 09:42 AM 07/03/2019 09:52 AM 0.000 0.000 0.000 0.000 0.000 Not Reported Not Reported
07/12/2019 11:09 PM 68.72 59.72 53.96 91.58 53.96 59.0 Not Reported 0.45 SE 1.57 SE 2.46 SE No 0.000 No Precipitation 07/03/2019 09:42 AM 07/03/2019 09:52 AM 0.000 0.000 0.000 0.000 0.000 Not Reported Not Reported
07/12/2019 11:24 PM 67.82 59.54 53.78 91.58 53.96 60.0 Not Reported 0.45 E 0.89 E 1.57 SE No 0.000 No Precipitation 07/03/2019 09:42 AM 07/03/2019 09:52 AM 0.000 0.000 0.000 0.000 0.000 Not Reported Not Reported
07/12/2019 11:39 PM 67.28 59.18 53.60 91.58 53.96 61.0 Not Reported 1.34 SE 0.00 SE 0.89 SE No 0.000 No Precipitation 07/03/2019 09:42 AM 07/03/2019 09:52 AM 0.000 0.000 0.000 0.000 0.000 Not Reported Not Reported
07/12/2019 11:54 PM 66.56 58.82 53.78 91.58 53.96 63.0 Not Reported 0.67 SE 1.57 SE 0.89 S No 0.000 No Precipitation 07/03/2019 09:42 AM 07/03/2019 09:52 AM 0.000 0.000 0.000 0.000 0.000 Not Reported Not Reported